sensor_id;sensor_type;location;lat;lon;timestamp;pressure;altitude;pressure_sealevel;temperature;humidity
35878;BME280;21982;49.804;24.072;2024-03-08T00:01:40;97728.72;;;-0.44;59.94
35878;BME280;21982;49.804;24.072;2024-03-08T00:04:06;97867.00;;;0.59;60.03
35878;BME280;21982;49.804;24.072;2024-03-08T00:06:32;97764.19;;;-0.07;60.20
35878;BME280;21982;49.804;24.072;2024-03-08T00:08:59;97841.34;;;0.42;60.43
35878;BME280;21982;49.804;24.072;2024-03-08T00:11:24;97848.94;;;0.45;60.76
35878;BME280;21982;49.804;24.072;2024-03-08T00:13:52;97866.16;;;0.59;60.10
35878;BME280;21982;49.804;24.072;2024-03-08T00:16:18;97852.03;;;0.50;60.39
35878;BME280;21982;49.804;24.072;2024-03-08T00:18:48;97869.16;;;0.65;60.29
35878;BME280;21982;49.804;24.072;2024-03-08T00:21:14;97794.63;;;0.28;60.36
35878;BME280;21982;49.804;24.072;2024-03-08T00:23:40;97829.31;;;0.52;60.29
35878;BME280;21982;49.804;24.072;2024-03-08T00:26:06;97828.25;;;0.55;60.31
35878;BME280;21982;49.804;24.072;2024-03-08T00:28:32;97820.09;;;0.59;60.39
35878;BME280;21982;49.804;24.072;2024-03-08T00:30:59;97863.28;;;0.86;60.67
35878;BME280;21982;49.804;24.072;2024-03-08T00:33:25;97837.66;;;0.69;60.87
35878;BME280;21982;49.804;24.072;2024-03-08T00:35:50;97833.75;;;0.74;60.41
35878;BME280;21982;49.804;24.072;2024-03-08T00:38:16;97857.84;;;0.89;60.59
35878;BME280;21982;49.804;24.072;2024-03-08T00:40:41;97803.53;;;0.72;60.48
35878;BME280;21982;49.804;24.072;2024-03-08T00:43:07;97730.13;;;0.31;60.60
35878;BME280;21982;49.804;24.072;2024-03-08T00:45:33;97858.84;;;1.10;60.40
35878;BME280;21982;49.804;24.072;2024-03-08T00:47:59;97855.41;;;1.10;60.72
35878;BME280;21982;49.804;24.072;2024-03-08T00:50:25;97849.34;;;1.09;60.28
35878;BME280;21982;49.804;24.072;2024-03-08T00:52:50;97852.47;;;1.14;60.62
35878;BME280;21982;49.804;24.072;2024-03-08T00:55:16;97854.50;;;1.22;60.29
35878;BME280;21982;49.804;24.072;2024-03-08T00:57:42;97842.75;;;1.27;60.55
35878;BME280;21982;49.804;24.072;2024-03-08T01:00:07;97844.19;;;1.31;60.05
35878;BME280;21982;49.804;24.072;2024-03-08T01:02:37;97854.16;;;1.38;60.52
35878;BME280;21982;49.804;24.072;2024-03-08T01:05:03;97837.06;;;1.45;60.19
35878;BME280;21982;49.804;24.072;2024-03-08T01:07:34;97812.88;;;1.31;59.87
35878;BME280;21982;49.804;24.072;2024-03-08T01:10:00;97843.84;;;1.47;60.25
35878;BME280;21982;49.804;24.072;2024-03-08T01:12:26;97838.00;;;1.44;59.98
35878;BME280;21982;49.804;24.072;2024-03-08T01:14:51;97815.84;;;1.27;60.28
35878;BME280;21982;49.804;24.072;2024-03-08T01:17:16;97791.28;;;1.07;60.68
35878;BME280;21982;49.804;24.072;2024-03-08T01:19:43;97830.91;;;1.23;60.36
35878;BME280;21982;49.804;24.072;2024-03-08T01:22:11;97688.34;;;0.33;60.32
35878;BME280;21982;49.804;24.072;2024-03-08T01:24:36;97827.56;;;1.21;60.56
35878;BME280;21982;49.804;24.072;2024-03-08T01:27:02;97802.66;;;1.06;60.31
35878;BME280;21982;49.804;24.072;2024-03-08T01:29:28;97781.31;;;0.90;60.52
35878;BME280;21982;49.804;24.072;2024-03-08T01:31:55;97784.88;;;1.00;60.72
35878;BME280;21982;49.804;24.072;2024-03-08T01:34:21;97789.16;;;1.01;60.39
35878;BME280;21982;49.804;24.072;2024-03-08T01:36:48;97832.34;;;1.27;60.43
35878;BME280;21982;49.804;24.072;2024-03-08T01:39:14;97786.66;;;0.99;60.65
35878;BME280;21982;49.804;24.072;2024-03-08T01:41:39;97826.16;;;1.28;60.94
35878;BME280;21982;49.804;24.072;2024-03-08T01:44:05;97824.16;;;1.32;60.69
35878;BME280;21982;49.804;24.072;2024-03-08T01:46:33;97811.69;;;1.24;60.95
35878;BME280;21982;49.804;24.072;2024-03-08T01:48:59;97697.25;;;0.53;60.79
35878;BME280;21982;49.804;24.072;2024-03-08T01:51:26;97822.72;;;1.28;60.77
35878;BME280;21982;49.804;24.072;2024-03-08T01:53:55;97771.84;;;1.00;60.68
35878;BME280;21982;49.804;24.072;2024-03-08T01:56:23;97809.06;;;1.13;60.56
35878;BME280;21982;49.804;24.072;2024-03-08T01:58:50;97772.16;;;0.84;60.41
35878;BME280;21982;49.804;24.072;2024-03-08T02:01:16;97754.59;;;0.64;60.64
35878;BME280;21982;49.804;24.072;2024-03-08T02:03:42;97809.06;;;1.02;61.08
35878;BME280;21982;49.804;24.072;2024-03-08T02:06:11;97679.78;;;0.20;60.79
35878;BME280;21982;49.804;24.072;2024-03-08T02:08:37;97810.25;;;0.98;60.84
35878;BME280;21982;49.804;24.072;2024-03-08T02:11:04;97814.41;;;1.00;61.20
35878;BME280;21982;49.804;24.072;2024-03-08T02:13:29;97783.44;;;0.85;61.60
35878;BME280;21982;49.804;24.072;2024-03-08T02:15:56;97737.66;;;0.58;60.63
35878;BME280;21982;49.804;24.072;2024-03-08T02:18:24;97795.44;;;0.98;61.27
35878;BME280;21982;49.804;24.072;2024-03-08T02:21:01;97718.66;;;0.34;61.36
35878;BME280;21982;49.804;24.072;2024-03-08T02:23:27;97798.84;;;0.88;61.50
35878;BME280;21982;49.804;24.072;2024-03-08T02:25:54;97769.75;;;0.70;61.20
35878;BME280;21982;49.804;24.072;2024-03-08T02:28:20;97758.72;;;0.55;61.11
35878;BME280;21982;49.804;24.072;2024-03-08T02:30:46;97786.00;;;0.74;61.84
35878;BME280;21982;49.804;24.072;2024-03-08T02:33:16;97758.00;;;0.53;61.08
35878;BME280;21982;49.804;24.072;2024-03-08T02:35:42;97796.31;;;0.64;61.29
35878;BME280;21982;49.804;24.072;2024-03-08T02:38:11;97803.06;;;0.66;61.48
35878;BME280;21982;49.804;24.072;2024-03-08T02:40:48;97766.28;;;0.47;61.26
35878;BME280;21982;49.804;24.072;2024-03-08T02:43:16;97802.56;;;0.61;61.79
35878;BME280;21982;49.804;24.072;2024-03-08T02:45:42;97726.59;;;0.09;62.00
35878;BME280;21982;49.804;24.072;2024-03-08T02:48:09;97804.91;;;0.53;61.95
35878;BME280;21982;49.804;24.072;2024-03-08T02:50:36;97744.09;;;0.07;62.09
35878;BME280;21982;49.804;24.072;2024-03-08T02:53:02;97749.38;;;0.18;62.36
35878;BME280;21982;49.804;24.072;2024-03-08T02:55:28;97682.44;;;-0.28;62.14
35878;BME280;21982;49.804;24.072;2024-03-08T02:57:54;97783.63;;;0.24;62.08
35878;BME280;21982;49.804;24.072;2024-03-08T03:00:22;97799.75;;;0.41;62.31
35878;BME280;21982;49.804;24.072;2024-03-08T03:02:53;97798.47;;;0.46;62.30
35878;BME280;21982;49.804;24.072;2024-03-08T03:05:22;97716.41;;;0.06;62.34
35878;BME280;21982;49.804;24.072;2024-03-08T03:07:51;97795.38;;;0.41;62.47
35878;BME280;21982;49.804;24.072;2024-03-08T03:10:17;97793.72;;;0.40;62.37
35878;BME280;21982;49.804;24.072;2024-03-08T03:12:45;97786.13;;;0.37;62.35
35878;BME280;21982;49.804;24.072;2024-03-08T03:15:19;97789.44;;;0.39;62.65
35878;BME280;21982;49.804;24.072;2024-03-08T03:17:49;97779.63;;;0.43;62.38
35878;BME280;21982;49.804;24.072;2024-03-08T03:20:18;97774.19;;;0.35;62.24
35878;BME280;21982;49.804;24.072;2024-03-08T03:22:57;97781.03;;;0.36;62.44
35878;BME280;21982;49.804;24.072;2024-03-08T03:25:23;97741.16;;;0.11;62.72
35878;BME280;21982;49.804;24.072;2024-03-08T03:27:52;97786.38;;;0.34;62.00
35878;BME280;21982;49.804;24.072;2024-03-08T03:30:17;97681.94;;;-0.33;62.09
35878;BME280;21982;49.804;24.072;2024-03-08T03:32:51;97756.41;;;0.05;62.24
35878;BME280;21982;49.804;24.072;2024-03-08T03:35:18;97786.53;;;0.20;62.37
35878;BME280;21982;49.804;24.072;2024-03-08T03:37:44;97785.66;;;0.08;62.23
35878;BME280;21982;49.804;24.072;2024-03-08T03:40:27;97683.63;;;-0.69;62.46
35878;BME280;21982;49.804;24.072;2024-03-08T03:42:53;97789.28;;;-0.06;63.01
35878;BME280;21982;49.804;24.072;2024-03-08T03:45:18;97792.19;;;-0.10;62.86
35878;BME280;21982;49.804;24.072;2024-03-08T03:47:45;97785.66;;;-0.16;62.72
35878;BME280;21982;49.804;24.072;2024-03-08T03:50:11;97705.72;;;-0.74;63.03
35878;BME280;21982;49.804;24.072;2024-03-08T03:52:36;97777.84;;;-0.40;62.97
35878;BME280;21982;49.804;24.072;2024-03-08T03:55:02;97798.31;;;-0.35;63.43
35878;BME280;21982;49.804;24.072;2024-03-08T03:57:29;97778.47;;;-0.49;62.96
35878;BME280;21982;49.804;24.072;2024-03-08T03:59:55;97786.69;;;-0.42;63.25
35878;BME280;21982;49.804;24.072;2024-03-08T04:02:20;97660.59;;;-1.22;63.28
35878;BME280;21982;49.804;24.072;2024-03-08T04:04:47;97723.84;;;-0.85;63.28
35878;BME280;21982;49.804;24.072;2024-03-08T04:07:13;97751.25;;;-0.69;63.29
35878;BME280;21982;49.804;24.072;2024-03-08T04:09:38;97635.06;;;-1.54;63.54
35878;BME280;21982;49.804;24.072;2024-03-08T04:12:04;97790.56;;;-0.60;63.56
35878;BME280;21982;49.804;24.072;2024-03-08T04:14:29;97694.38;;;-1.22;63.29
35878;BME280;21982;49.804;24.072;2024-03-08T04:16:55;97784.34;;;-0.71;63.69
35878;BME280;21982;49.804;24.072;2024-03-08T04:19:20;97774.59;;;-0.80;63.74
35878;BME280;21982;49.804;24.072;2024-03-08T04:21:46;97783.09;;;-0.78;63.80
35878;BME280;21982;49.804;24.072;2024-03-08T04:24:12;97791.22;;;-0.82;63.79
35878;BME280;21982;49.804;24.072;2024-03-08T04:26:37;97676.72;;;-1.55;63.73
35878;BME280;21982;49.804;24.072;2024-03-08T04:29:03;97790.81;;;-0.89;64.01
35878;BME280;21982;49.804;24.072;2024-03-08T04:31:28;97754.44;;;-1.14;64.23
35878;BME280;21982;49.804;24.072;2024-03-08T04:33:56;97770.13;;;-1.03;63.89
35878;BME280;21982;49.804;24.072;2024-03-08T04:36:23;97798.72;;;-0.90;64.04
35878;BME280;21982;49.804;24.072;2024-03-08T04:38:50;97787.69;;;-0.94;64.32
35878;BME280;21982;49.804;24.072;2024-03-08T04:41:16;97773.16;;;-1.09;64.16
35878;BME280;21982;49.804;24.072;2024-03-08T04:43:42;97757.34;;;-1.19;64.22
35878;BME280;21982;49.804;24.072;2024-03-08T04:46:09;97799.03;;;-0.95;64.18
35878;BME280;21982;49.804;24.072;2024-03-08T04:48:35;97767.53;;;-1.16;64.27
35878;BME280;21982;49.804;24.072;2024-03-08T04:51:03;97798.50;;;-1.00;64.09
35878;BME280;21982;49.804;24.072;2024-03-08T04:53:29;97731.47;;;-1.46;64.10
35878;BME280;21982;49.804;24.072;2024-03-08T04:55:54;97748.81;;;-1.33;64.35
35878;BME280;21982;49.804;24.072;2024-03-08T04:58:24;97785.41;;;-1.11;64.23
35878;BME280;21982;49.804;24.072;2024-03-08T05:00:49;97795.28;;;-1.04;64.36
35878;BME280;21982;49.804;24.072;2024-03-08T05:03:15;97805.66;;;-1.04;64.28
35878;BME280;21982;49.804;24.072;2024-03-08T05:05:41;97756.81;;;-1.37;64.30
35878;BME280;21982;49.804;24.072;2024-03-08T05:08:06;97797.06;;;-1.04;64.52
35878;BME280;21982;49.804;24.072;2024-03-08T05:10:33;97804.72;;;-1.03;64.58
35878;BME280;21982;49.804;24.072;2024-03-08T05:13:00;97777.94;;;-1.16;64.56
35878;BME280;21982;49.804;24.072;2024-03-08T05:15:26;97771.91;;;-1.16;64.53
35878;BME280;21982;49.804;24.072;2024-03-08T05:17:52;97802.44;;;-0.94;64.60
35878;BME280;21982;49.804;24.072;2024-03-08T05:20:17;97803.06;;;-0.91;64.31
35878;BME280;21982;49.804;24.072;2024-03-08T05:22:44;97729.69;;;-1.32;64.82
35878;BME280;21982;49.804;24.072;2024-03-08T05:25:12;97758.28;;;-1.07;64.61
35878;BME280;21982;49.804;24.072;2024-03-08T05:27:39;97790.59;;;-0.86;64.75
35878;BME280;21982;49.804;24.072;2024-03-08T05:30:05;97803.25;;;-0.69;64.35
35878;BME280;21982;49.804;24.072;2024-03-08T05:32:31;97757.94;;;-0.90;64.51
35878;BME280;21982;49.804;24.072;2024-03-08T05:34:57;97811.16;;;-0.57;64.67
35878;BME280;21982;49.804;24.072;2024-03-08T05:37:23;97809.06;;;-0.52;64.61
35878;BME280;21982;49.804;24.072;2024-03-08T05:39:48;97813.03;;;-0.47;64.16
35878;BME280;21982;49.804;24.072;2024-03-08T05:42:13;97814.56;;;-0.44;64.33
35878;BME280;21982;49.804;24.072;2024-03-08T05:44:39;97745.25;;;-0.82;64.26
35878;BME280;21982;49.804;24.072;2024-03-08T05:47:06;97784.50;;;-0.48;64.75
35878;BME280;21982;49.804;24.072;2024-03-08T05:49:32;97753.09;;;-0.58;64.45
35878;BME280;21982;49.804;24.072;2024-03-08T05:51:57;97736.66;;;-0.58;63.88
35878;BME280;21982;49.804;24.072;2024-03-08T05:54:23;97735.22;;;-0.62;64.40
35878;BME280;21982;49.804;24.072;2024-03-08T05:56:49;97821.25;;;-0.04;64.41
35878;BME280;21982;49.804;24.072;2024-03-08T05:59:18;97796.25;;;-0.06;64.56
35878;BME280;21982;49.804;24.072;2024-03-08T06:01:43;97825.09;;;0.15;63.80
35878;BME280;21982;49.804;24.072;2024-03-08T06:04:11;97815.47;;;0.28;64.28
35878;BME280;21982;49.804;24.072;2024-03-08T06:06:36;97794.91;;;0.12;64.38
35878;BME280;21982;49.804;24.072;2024-03-08T06:09:02;97818.31;;;0.36;64.23
35878;BME280;21982;49.804;24.072;2024-03-08T06:11:34;97717.59;;;-0.22;63.84
35878;BME280;21982;49.804;24.072;2024-03-08T06:14:00;97802.00;;;0.34;63.57
35878;BME280;21982;49.804;24.072;2024-03-08T06:16:26;97821.59;;;0.51;63.62
35878;BME280;21982;49.804;24.072;2024-03-08T06:18:55;97713.78;;;-0.06;63.26
35878;BME280;21982;49.804;24.072;2024-03-08T06:21:21;97684.88;;;-0.14;63.12
35878;BME280;21982;49.804;24.072;2024-03-08T06:23:47;97788.81;;;0.59;63.83
35878;BME280;21982;49.804;24.072;2024-03-08T06:26:13;97813.75;;;0.86;63.33
35878;BME280;21982;49.804;24.072;2024-03-08T06:28:38;97829.44;;;0.97;62.89
35878;BME280;21982;49.804;24.072;2024-03-08T06:31:04;97834.44;;;1.00;63.28
35878;BME280;21982;49.804;24.072;2024-03-08T06:33:30;97830.38;;;1.07;62.97
35878;BME280;21982;49.804;24.072;2024-03-08T06:35:57;97824.00;;;1.11;63.28
35878;BME280;21982;49.804;24.072;2024-03-08T06:38:26;97748.94;;;0.81;62.53
35878;BME280;21982;49.804;24.072;2024-03-08T06:40:52;97835.53;;;1.42;62.57
35878;BME280;21982;49.804;24.072;2024-03-08T06:43:18;97832.31;;;1.50;62.46
35878;BME280;21982;49.804;24.072;2024-03-08T06:45:44;97758.69;;;1.13;62.02
35878;BME280;21982;49.804;24.072;2024-03-08T06:48:17;97785.50;;;1.37;61.89
35878;BME280;21982;49.804;24.072;2024-03-08T06:50:44;97657.69;;;0.70;61.76
35878;BME280;21982;49.804;24.072;2024-03-08T06:53:10;97834.56;;;1.88;62.14
35878;BME280;21982;49.804;24.072;2024-03-08T06:55:36;97808.81;;;1.83;61.33
35878;BME280;21982;49.804;24.072;2024-03-08T06:58:02;97765.53;;;1.70;61.31
35878;BME280;21982;49.804;24.072;2024-03-08T07:00:27;97823.06;;;2.33;61.58
35878;BME280;21982;49.804;24.072;2024-03-08T07:02:54;97665.44;;;1.48;61.16
35878;BME280;21982;49.804;24.072;2024-03-08T07:05:19;97733.75;;;1.96;60.45
35878;BME280;21982;49.804;24.072;2024-03-08T07:07:45;97832.06;;;2.73;60.72
35878;BME280;21982;49.804;24.072;2024-03-08T07:10:14;97829.75;;;3.00;60.40
35878;BME280;21982;49.804;24.072;2024-03-08T07:12:41;97831.34;;;3.12;59.78
35878;BME280;21982;49.804;24.072;2024-03-08T07:15:06;97802.66;;;3.01;59.41
35878;BME280;21982;49.804;24.072;2024-03-08T07:17:32;97804.91;;;3.15;59.26
35878;BME280;21982;49.804;24.072;2024-03-08T07:20:00;97824.81;;;3.58;58.82
35878;BME280;21982;49.804;24.072;2024-03-08T07:22:29;97832.16;;;3.64;58.49
35878;BME280;21982;49.804;24.072;2024-03-08T07:24:54;97745.88;;;3.22;58.56
35878;BME280;21982;49.804;24.072;2024-03-08T07:27:19;97821.16;;;3.70;58.41
35878;BME280;21982;49.804;24.072;2024-03-08T07:29:46;97736.06;;;3.45;57.92
35878;BME280;21982;49.804;24.072;2024-03-08T07:32:11;97573.41;;;2.60;57.72
35878;BME280;21982;49.804;24.072;2024-03-08T07:34:37;97839.53;;;4.39;56.93
35878;BME280;21982;49.804;24.072;2024-03-08T07:37:02;97793.69;;;4.14;56.86
35878;BME280;21982;49.804;24.072;2024-03-08T07:39:29;97810.94;;;4.26;56.92
35878;BME280;21982;49.804;24.072;2024-03-08T07:41:54;97737.25;;;3.91;56.75
35878;BME280;21982;49.804;24.072;2024-03-08T07:44:20;97742.94;;;4.06;56.63
35878;BME280;21982;49.804;24.072;2024-03-08T07:46:45;97681.81;;;3.76;56.12
35878;BME280;21982;49.804;24.072;2024-03-08T07:49:11;97843.41;;;4.74;56.05
35878;BME280;21982;49.804;24.072;2024-03-08T07:51:37;97833.03;;;4.91;56.16
35878;BME280;21982;49.804;24.072;2024-03-08T07:54:03;97740.22;;;4.92;56.34
35878;BME280;21982;49.804;24.072;2024-03-08T07:56:34;97828.94;;;6.55;55.42
35878;BME280;21982;49.804;24.072;2024-03-08T07:59:02;97814.16;;;7.75;54.28
35878;BME280;21982;49.804;24.072;2024-03-08T08:01:29;97769.22;;;8.67;53.33
35878;BME280;21982;49.804;24.072;2024-03-08T08:03:55;97830.41;;;10.07;51.28
35878;BME280;21982;49.804;24.072;2024-03-08T08:06:21;97787.28;;;10.84;49.58
35878;BME280;21982;49.804;24.072;2024-03-08T08:08:47;97806.94;;;11.94;48.11
35878;BME280;21982;49.804;24.072;2024-03-08T08:11:12;97822.81;;;12.95;46.72
35878;BME280;21982;49.804;24.072;2024-03-08T08:13:38;97828.13;;;14.00;44.54
35878;BME280;21982;49.804;24.072;2024-03-08T08:16:04;97811.38;;;14.54;43.41
35878;BME280;21982;49.804;24.072;2024-03-08T08:18:31;97775.16;;;15.13;42.03
35878;BME280;21982;49.804;24.072;2024-03-08T08:20:58;97791.97;;;15.39;41.04
35878;BME280;21982;49.804;24.072;2024-03-08T08:23:25;97791.56;;;15.62;40.35
35878;BME280;21982;49.804;24.072;2024-03-08T08:25:51;97813.91;;;16.46;39.26
35878;BME280;21982;49.804;24.072;2024-03-08T08:28:17;97818.63;;;17.20;37.71
35878;BME280;21982;49.804;24.072;2024-03-08T08:30:45;97753.97;;;16.66;37.13
35878;BME280;21982;49.804;24.072;2024-03-08T08:33:11;97743.34;;;16.53;37.04
35878;BME280;21982;49.804;24.072;2024-03-08T08:35:37;97797.59;;;17.73;36.17
35878;BME280;21982;49.804;24.072;2024-03-08T08:38:04;97775.28;;;18.34;34.94
35878;BME280;21982;49.804;24.072;2024-03-08T08:40:30;97790.34;;;18.95;34.38
35878;BME280;21982;49.804;24.072;2024-03-08T08:42:58;97678.03;;;18.38;33.51
35878;BME280;21982;49.804;24.072;2024-03-08T08:45:24;97805.88;;;18.26;33.37
35878;BME280;21982;49.804;24.072;2024-03-08T08:47:49;97802.13;;;17.48;34.18
35878;BME280;21982;49.804;24.072;2024-03-08T08:50:15;97695.84;;;15.66;34.60
35878;BME280;21982;49.804;24.072;2024-03-08T08:52:41;97564.28;;;13.21;35.40
35878;BME280;21982;49.804;24.072;2024-03-08T08:55:10;97772.44;;;13.36;37.03
35878;BME280;21982;49.804;24.072;2024-03-08T08:57:40;97796.59;;;12.92;36.78
35878;BME280;21982;49.804;24.072;2024-03-08T09:00:06;97681.38;;;12.08;37.03
35878;BME280;21982;49.804;24.072;2024-03-08T09:02:40;97677.13;;;13.12;36.98
35878;BME280;21982;49.804;24.072;2024-03-08T09:05:06;97764.69;;;15.11;35.64
35878;BME280;21982;49.804;24.072;2024-03-08T09:07:33;97784.31;;;15.89;34.43
35878;BME280;21982;49.804;24.072;2024-03-08T09:09:59;97791.50;;;16.47;33.98
35878;BME280;21982;49.804;24.072;2024-03-08T09:12:25;97801.41;;;17.09;33.29
35878;BME280;21982;49.804;24.072;2024-03-08T09:14:50;97680.31;;;16.70;32.64
35878;BME280;21982;49.804;24.072;2024-03-08T09:17:16;97773.13;;;17.45;32.73
35878;BME280;21982;49.804;24.072;2024-03-08T09:19:48;97689.94;;;17.21;32.07
35878;BME280;21982;49.804;24.072;2024-03-08T09:22:14;97769.78;;;17.92;31.69
35878;BME280;21982;49.804;24.072;2024-03-08T09:24:39;97650.28;;;17.55;31.58
35878;BME280;21982;49.804;24.072;2024-03-08T09:27:05;97670.00;;;18.08;31.04
35878;BME280;21982;49.804;24.072;2024-03-08T09:29:31;97738.19;;;18.31;30.72
35878;BME280;21982;49.804;24.072;2024-03-08T09:31:56;97778.88;;;18.88;30.58
35878;BME280;21982;49.804;24.072;2024-03-08T09:34:22;97756.31;;;17.99;30.12
35878;BME280;21982;49.804;24.072;2024-03-08T09:36:49;97653.13;;;16.42;30.83
35878;BME280;21982;49.804;24.072;2024-03-08T09:39:15;97688.13;;;16.97;31.06
35878;BME280;21982;49.804;24.072;2024-03-08T09:41:45;97731.16;;;18.00;30.52
35878;BME280;21982;49.804;24.072;2024-03-08T09:44:13;97775.06;;;16.81;31.18
35878;BME280;21982;49.804;24.072;2024-03-08T09:46:40;97630.56;;;14.71;32.08
35878;BME280;21982;49.804;24.072;2024-03-08T09:49:06;97775.94;;;15.66;32.30
35878;BME280;21982;49.804;24.072;2024-03-08T09:51:33;97744.41;;;16.46;32.29
35878;BME280;21982;49.804;24.072;2024-03-08T09:54:00;97630.53;;;16.94;31.03
35878;BME280;21982;49.804;24.072;2024-03-08T09:56:26;97661.31;;;17.65;30.21
35878;BME280;21982;49.804;24.072;2024-03-08T09:58:53;97776.72;;;18.48;29.53
35878;BME280;21982;49.804;24.072;2024-03-08T10:01:30;97779.59;;;18.95;29.72
35878;BME280;21982;49.804;24.072;2024-03-08T10:03:57;97777.84;;;19.54;29.08
35878;BME280;21982;49.804;24.072;2024-03-08T10:06:23;97773.66;;;19.69;28.88
35878;BME280;21982;49.804;24.072;2024-03-08T10:08:49;97766.00;;;19.31;28.51
35878;BME280;21982;49.804;24.072;2024-03-08T10:11:17;97777.81;;;18.29;29.04
35878;BME280;21982;49.804;24.072;2024-03-08T10:13:44;97776.47;;;18.20;29.27
35878;BME280;21982;49.804;24.072;2024-03-08T10:16:11;97758.22;;;18.10;29.18
35878;BME280;21982;49.804;24.072;2024-03-08T10:18:37;97767.84;;;19.19;28.80
35878;BME280;21982;49.804;24.072;2024-03-08T10:21:03;97769.66;;;19.60;28.19
35878;BME280;21982;49.804;24.072;2024-03-08T10:26:24;97649.13;;;19.40;28.54
35878;BME280;21982;49.804;24.072;2024-03-08T10:28:52;97766.78;;;20.14;28.04
35878;BME280;21982;49.804;24.072;2024-03-08T10:31:19;97734.72;;;19.25;28.38
35878;BME280;21982;49.804;24.072;2024-03-08T10:33:48;97698.19;;;18.59;28.21
35878;BME280;21982;49.804;24.072;2024-03-08T10:36:15;97722.97;;;17.95;28.81
35878;BME280;21982;49.804;24.072;2024-03-08T10:38:42;97689.25;;;17.51;29.27
35878;BME280;21982;49.804;24.072;2024-03-08T10:41:14;97659.34;;;17.54;29.26
35878;BME280;21982;49.804;24.072;2024-03-08T10:46:20;97754.81;;;18.69;28.82
35878;BME280;21982;49.804;24.072;2024-03-08T10:48:49;97730.19;;;18.72;28.15
35878;BME280;21982;49.804;24.072;2024-03-08T10:51:15;97707.56;;;18.80;27.76
35878;BME280;21982;49.804;24.072;2024-03-08T10:53:42;97755.97;;;19.85;27.49
35878;BME280;21982;49.804;24.072;2024-03-08T10:56:09;97753.78;;;20.62;26.80
35878;BME280;21982;49.804;24.072;2024-03-08T10:58:36;97633.78;;;20.78;25.58
35878;BME280;21982;49.804;24.072;2024-03-08T11:01:02;97683.91;;;21.34;25.58
35878;BME280;21982;49.804;24.072;2024-03-08T11:08:40;97684.66;;;22.61;24.17
35878;BME280;21982;49.804;24.072;2024-03-08T11:11:05;97616.84;;;22.25;23.81
35878;BME280;21982;49.804;24.072;2024-03-08T11:13:48;97737.16;;;23.02;23.43
35878;BME280;21982;49.804;24.072;2024-03-08T11:19:45;97663.03;;;21.85;23.82
35878;BME280;21982;49.804;24.072;2024-03-08T11:21:43;97726.91;;;22.01;24.03
35878;BME280;21982;49.804;24.072;2024-03-08T11:24:11;97533.06;;;20.57;23.80
35878;BME280;21982;49.804;24.072;2024-03-08T11:26:39;97736.69;;;21.69;24.15
35878;BME280;21982;49.804;24.072;2024-03-08T11:34:40;97676.53;;;22.07;23.24
35878;BME280;21982;49.804;24.072;2024-03-08T11:37:17;97636.25;;;22.00;23.23
35878;BME280;21982;49.804;24.072;2024-03-08T11:42:15;97604.84;;;21.89;22.68
35878;BME280;21982;49.804;24.072;2024-03-08T11:44:43;97690.50;;;21.82;23.04
35878;BME280;21982;49.804;24.072;2024-03-08T11:47:10;97667.41;;;21.91;23.00
35878;BME280;21982;49.804;24.072;2024-03-08T11:49:36;97677.03;;;22.80;22.48
35878;BME280;21982;49.804;24.072;2024-03-08T11:52:02;97704.53;;;23.46;22.29
35878;BME280;21982;49.804;24.072;2024-03-08T11:54:28;97672.75;;;23.63;21.82
35878;BME280;21982;49.804;24.072;2024-03-08T11:56:56;97701.03;;;23.97;21.53
35878;BME280;21982;49.804;24.072;2024-03-08T11:59:27;97682.19;;;24.18;21.59
35878;BME280;21982;49.804;24.072;2024-03-08T12:02:03;97697.69;;;23.75;21.66
35878;BME280;21982;49.804;24.072;2024-03-08T12:04:30;97618.69;;;22.79;21.97
35878;BME280;21982;49.804;24.072;2024-03-08T12:06:57;97691.00;;;22.77;21.89
35878;BME280;21982;49.804;24.072;2024-03-08T12:09:24;97655.06;;;21.95;22.13
35878;BME280;21982;49.804;24.072;2024-03-08T12:11:50;97693.03;;;22.11;22.19
35878;BME280;21982;49.804;24.072;2024-03-08T12:14:17;97416.31;;;20.58;21.66
35878;BME280;21982;49.804;24.072;2024-03-08T12:16:42;97638.44;;;21.38;21.66
35878;BME280;21982;49.804;24.072;2024-03-08T12:19:09;97630.06;;;21.34;22.15
35878;BME280;21982;49.804;24.072;2024-03-08T12:21:35;97570.66;;;21.24;21.64
35878;BME280;21982;49.804;24.072;2024-03-08T12:24:08;97683.84;;;21.68;21.52
35878;BME280;21982;49.804;24.072;2024-03-08T12:26:36;97657.16;;;21.11;21.79
35878;BME280;21982;49.804;24.072;2024-03-08T12:29:27;97684.41;;;21.48;21.95
35878;BME280;21982;49.804;24.072;2024-03-08T12:31:59;97675.31;;;22.20;21.35
35878;BME280;21982;49.804;24.072;2024-03-08T12:34:26;97667.19;;;22.68;21.05
35878;BME280;21982;49.804;24.072;2024-03-08T12:36:58;97513.78;;;21.96;20.51
35878;BME280;21982;49.804;24.072;2024-03-08T12:39:23;97553.16;;;21.97;20.68
35878;BME280;21982;49.804;24.072;2024-03-08T12:41:55;97670.47;;;22.17;21.03
35878;BME280;21982;49.804;24.072;2024-03-08T12:44:26;97407.00;;;20.88;21.06
35878;BME280;21982;49.804;24.072;2024-03-08T12:46:55;97594.69;;;21.96;20.29
35878;BME280;21982;49.804;24.072;2024-03-08T12:49:21;97655.53;;;22.36;20.48
35878;BME280;21982;49.804;24.072;2024-03-08T12:51:50;97655.47;;;22.58;20.72
35878;BME280;21982;49.804;24.072;2024-03-08T12:54:17;97622.44;;;22.78;20.30
35878;BME280;21982;49.804;24.072;2024-03-08T12:56:42;97619.41;;;22.37;20.44
35878;BME280;21982;49.804;24.072;2024-03-08T12:59:08;97653.66;;;22.10;20.95
35878;BME280;21982;49.804;24.072;2024-03-08T13:01:34;97612.25;;;21.55;21.16
35878;BME280;21982;49.804;24.072;2024-03-08T13:04:03;97631.25;;;21.65;21.18
35878;BME280;21982;49.804;24.072;2024-03-08T13:06:29;97642.09;;;21.92;21.05
35878;BME280;21982;49.804;24.072;2024-03-08T13:08:56;97566.50;;;21.60;20.61
35878;BME280;21982;49.804;24.072;2024-03-08T13:11:22;97621.91;;;21.73;20.35
35878;BME280;21982;49.804;24.072;2024-03-08T13:13:48;97531.56;;;21.44;20.86
35878;BME280;21982;49.804;24.072;2024-03-08T13:16:15;97627.75;;;22.09;20.99